Westwood, Louisiana
Current Conditions -  °F | °C
As of 3:53 PM on Monday 24 Nov 2014 (Local Time) from KTVR Reporting Station
Clear Clear  
Wind Chill: 60°   Ceiling: Unl
Heat Index: 60°   Visibility: 10mi
Dew Point: 36°   Wind: 5mph
Humidity: 41%   Direction: NA
Pressure: 30"   Gusts: NA
Location:  32.1015°N, 91.2929°W
Report Text: KTVR 242153Z AUTO VRB04KT 10SM CLR 16/02 A3000 RMK AO2 SLP165 T01560022
Loading
Personal Weather Stations






























Interactive Weather Map New forecast layout! Learn more

10-Day Weather Forecast

Advertisements
Track Severe Weather on mobile